createdAt,value
2022-09-12T00:01:19.533Z,89.52
2022-09-12T00:03:46.620Z,89.61
2022-09-12T00:06:22.881Z,89.56
2022-09-12T00:08:50.329Z,89.85
2022-09-12T00:11:16.682Z,90.26
2022-09-12T00:13:43.677Z,90.40
2022-09-12T00:16:36.599Z,90.54
2022-09-12T00:19:04.093Z,90.47
2022-09-12T00:21:33.176Z,90.09
2022-09-12T00:23:59.546Z,90.66
2022-09-12T00:26:25.949Z,90.12
2022-09-12T00:28:52.669Z,90.11
2022-09-12T00:31:23.940Z,89.97
2022-09-12T00:33:50.438Z,89.79
2022-09-12T00:36:19.644Z,88.98
2022-09-12T00:38:47.314Z,88.85
2022-09-12T00:41:27.290Z,89.76
2022-09-12T00:43:59.624Z,89.64
2022-09-12T00:46:32.464Z,89.73
2022-09-12T00:49:03.778Z,89.77
2022-09-12T00:51:34.049Z,90.56
2022-09-12T00:54:05.652Z,89.81
2022-09-12T00:56:32.836Z,90.03
2022-09-12T00:59:10.541Z,89.55
2022-09-12T01:01:37.397Z,89.59
2022-09-12T01:04:03.908Z,89.33
2022-09-12T01:06:36.319Z,89.11
2022-09-12T01:09:04.742Z,88.40
2022-09-12T01:11:34.030Z,88.27
2022-09-12T01:14:00.753Z,88.76
2022-09-12T01:16:27.404Z,89.48
2022-09-12T01:19:32.888Z,89.92
2022-09-12T01:22:30.165Z,90.07
2022-09-12T01:25:12.622Z,90.70
2022-09-12T01:27:45.884Z,91.37
2022-09-12T01:30:27.332Z,90.54
2022-09-12T01:33:12.362Z,90.40
2022-09-12T01:35:55.619Z,90.51
2022-09-12T01:38:27.515Z,91.63
2022-09-12T01:41:12.233Z,90.34
2022-09-12T01:43:59.315Z,90.97
2022-09-12T01:46:35.764Z,94.07
2022-09-12T01:49:27.237Z,94.13
2022-09-12T01:52:18.074Z,94.51
2022-09-12T01:54:51.238Z,94.93
2022-09-12T01:57:27.931Z,95.91
2022-09-12T02:00:00.387Z,95.60
2022-09-12T02:02:41.906Z,96.02
2022-09-12T02:05:12.699Z,97.45
2022-09-12T02:07:44.950Z,98.16
2022-09-12T02:10:16.043Z,98.28
2022-09-12T02:12:57.652Z,98.49
2022-09-12T02:15:32.542Z,99.04
2022-09-12T02:18:04.512Z,100.00
2022-09-12T02:20:50.771Z,100.00
2022-09-12T02:23:22.460Z,100.00
2022-09-12T02:25:52.684Z,100.00
2022-09-12T02:28:26.570Z,100.00
2022-09-12T02:30:59.261Z,100.00
2022-09-12T02:33:39.160Z,100.00
2022-09-12T02:36:14.310Z,100.00
2022-09-12T02:38:46.817Z,100.00
2022-09-12T02:41:17.300Z,100.00
2022-09-12T02:43:43.770Z,100.00
2022-09-12T02:46:18.015Z,100.00
2022-09-12T02:48:44.430Z,100.00
2022-09-12T02:51:11.773Z,100.00
2022-09-12T02:53:38.694Z,100.00
2022-09-12T02:56:12.630Z,100.00
2022-09-12T02:58:39.147Z,100.00
2022-09-12T03:01:18.908Z,100.00
2022-09-12T03:04:21.001Z,100.00
2022-09-12T03:06:55.310Z,100.00
2022-09-12T03:09:42.875Z,100.00
2022-09-12T03:12:30.200Z,100.00
2022-09-12T03:15:31.596Z,100.00
2022-09-12T03:18:19.954Z,100.00
2022-09-12T03:20:58.953Z,99.70
2022-09-12T03:23:33.832Z,100.00
2022-09-12T03:26:06.563Z,100.00
2022-09-12T03:28:35.532Z,100.00
2022-09-12T03:31:13.239Z,100.00
2022-09-12T03:33:39.585Z,100.00
2022-09-12T03:36:06.315Z,100.00
2022-09-12T03:38:32.660Z,100.00
2022-09-12T03:40:59.055Z,100.00
2022-09-12T03:43:25.422Z,100.00
2022-09-12T03:45:53.296Z,99.80
2022-09-12T03:48:21.076Z,100.00
2022-09-12T03:50:47.442Z,99.46
2022-09-12T03:53:17.060Z,99.57
2022-09-12T03:55:44.330Z,100.00
2022-09-12T03:58:10.667Z,99.43
2022-09-12T04:00:38.826Z,100.00
2022-09-12T04:03:05.249Z,100.00
2022-09-12T04:05:31.610Z,100.00
2022-09-12T04:07:58.099Z,99.64
2022-09-12T04:10:24.492Z,99.36
2022-09-12T04:12:50.976Z,99.97
2022-09-12T04:15:17.406Z,100.00
2022-09-12T04:17:43.817Z,100.00
2022-09-12T04:20:10.674Z,100.00
2022-09-12T04:22:37.063Z,100.00
2022-09-12T04:25:04.006Z,100.00
2022-09-12T04:27:30.881Z,100.00
2022-09-12T04:29:58.076Z,100.00
2022-09-12T04:32:24.531Z,100.00
2022-09-12T04:34:52.390Z,100.00
2022-09-12T04:37:19.322Z,100.00
2022-09-12T04:39:45.740Z,100.00
2022-09-12T04:42:12.351Z,100.00
2022-09-12T04:44:38.738Z,100.00
2022-09-12T04:47:05.168Z,100.00
2022-09-12T04:49:31.710Z,100.00
2022-09-12T04:51:58.087Z,100.00
2022-09-12T04:54:24.629Z,100.00
2022-09-12T04:56:52.476Z,100.00
2022-09-12T04:59:21.111Z,100.00
2022-09-12T05:01:48.385Z,100.00
2022-09-12T05:04:15.562Z,100.00
2022-09-12T05:06:43.075Z,100.00
2022-09-12T05:09:12.466Z,100.00
2022-09-12T05:12:03.101Z,100.00
2022-09-12T05:14:27.483Z,100.00
2022-09-12T05:16:53.944Z,100.00
2022-09-12T05:19:20.362Z,100.00
2022-09-12T05:21:46.711Z,100.00
2022-09-12T05:24:13.184Z,100.00
2022-09-12T05:26:39.596Z,100.00
2022-09-12T05:29:06.992Z,100.00
2022-09-12T05:31:33.418Z,100.00
2022-09-12T05:33:59.802Z,100.00
2022-09-12T05:36:29.222Z,100.00
2022-09-12T05:38:56.251Z,100.00
2022-09-12T05:41:25.741Z,100.00
2022-09-12T05:43:54.399Z,100.00
2022-09-12T05:46:23.239Z,100.00
2022-09-12T05:48:55.133Z,100.00
2022-09-12T05:51:27.975Z,100.00
2022-09-12T05:53:59.887Z,100.00
2022-09-12T05:56:28.859Z,100.00
2022-09-12T05:58:58.863Z,100.00
2022-09-12T06:01:27.235Z,100.00
2022-09-12T06:03:55.531Z,100.00
2022-09-12T06:06:24.552Z,100.00
2022-09-12T06:08:53.947Z,100.00
2022-09-12T06:11:22.934Z,100.00
2022-09-12T06:13:50.952Z,100.00
2022-09-12T06:16:20.220Z,100.00
2022-09-12T06:18:48.660Z,100.00
2022-09-12T06:21:15.516Z,100.00
2022-09-12T06:23:42.605Z,100.00
2022-09-12T06:26:10.681Z,100.00
2022-09-12T06:28:39.975Z,100.00
2022-09-12T06:31:15.151Z,100.00
2022-09-12T06:33:46.829Z,100.00
2022-09-12T06:36:18.593Z,100.00
2022-09-12T06:38:46.259Z,100.00
2022-09-12T06:41:13.645Z,100.00
2022-09-12T06:43:41.394Z,100.00
2022-09-12T06:46:09.181Z,100.00
2022-09-12T06:48:39.733Z,100.00
2022-09-12T06:51:14.660Z,100.00
2022-09-12T06:53:42.083Z,100.00
2022-09-12T06:56:19.138Z,100.00
2022-09-12T06:58:47.009Z,100.00
2022-09-12T07:01:18.945Z,100.00
2022-09-12T07:03:54.958Z,100.00
2022-09-12T07:06:24.239Z,100.00
2022-09-12T07:08:50.983Z,100.00
2022-09-12T07:11:23.912Z,100.00
2022-09-12T07:13:55.978Z,100.00
2022-09-12T07:16:22.755Z,100.00
2022-09-12T07:18:52.905Z,100.00
2022-09-12T07:21:20.147Z,100.00
2022-09-12T07:23:47.308Z,100.00
2022-09-12T07:26:15.629Z,100.00
2022-09-12T07:28:42.431Z,100.00
2022-09-12T07:31:17.665Z,100.00
2022-09-12T07:33:44.588Z,100.00
2022-09-12T07:36:13.817Z,100.00
2022-09-12T07:38:41.357Z,100.00
2022-09-12T07:41:15.094Z,100.00
2022-09-12T07:43:44.342Z,100.00
2022-09-12T07:46:11.605Z,100.00
2022-09-12T07:48:39.199Z,100.00
2022-09-12T07:51:08.567Z,100.00
2022-09-12T07:53:37.633Z,100.00
2022-09-12T07:56:05.441Z,100.00
2022-09-12T07:58:33.863Z,100.00
2022-09-12T08:01:05.775Z,100.00
2022-09-12T08:03:32.168Z,100.00
2022-09-12T08:06:04.778Z,100.00
2022-09-12T08:08:31.803Z,100.00
2022-09-12T08:11:00.139Z,100.00
2022-09-12T08:13:28.056Z,100.00
2022-09-12T08:16:02.585Z,100.00
2022-09-12T08:18:31.119Z,100.00
2022-09-12T08:20:59.219Z,100.00
2022-09-12T08:23:26.057Z,100.00
2022-09-12T08:25:56.931Z,100.00
2022-09-12T08:28:24.990Z,100.00
2022-09-12T08:30:52.389Z,100.00
2022-09-12T08:33:19.396Z,100.00
2022-09-12T08:35:46.659Z,100.00
2022-09-12T08:38:13.117Z,100.00
2022-09-12T08:40:59.439Z,100.00
2022-09-12T08:43:50.969Z,100.00
2022-09-12T08:46:29.252Z,100.00
2022-09-12T08:48:58.464Z,100.00
2022-09-12T08:51:25.420Z,100.00
2022-09-12T08:53:54.635Z,100.00
2022-09-12T08:56:21.386Z,100.00
2022-09-12T08:58:48.155Z,100.00
2022-09-12T09:01:34.871Z,100.00
2022-09-12T09:04:10.587Z,100.00
2022-09-12T09:06:52.208Z,100.00
2022-09-12T09:09:21.897Z,100.00
2022-09-12T09:12:03.318Z,100.00
2022-09-12T09:15:01.028Z,100.00
2022-09-12T09:18:04.139Z,100.00
2022-09-12T09:20:39.326Z,100.00
2022-09-12T09:23:17.671Z,100.00
2022-09-12T09:26:14.580Z,100.00
2022-09-12T09:28:51.383Z,100.00
2022-09-12T09:31:20.651Z,100.00
2022-09-12T09:33:49.705Z,100.00
2022-09-12T09:36:38.894Z,100.00
2022-09-12T09:39:12.504Z,100.00
2022-09-12T09:44:59.096Z,100.00
2022-09-12T09:47:25.999Z,100.00
2022-09-12T09:49:52.394Z,100.00
2022-09-12T09:52:26.213Z,100.00
2022-09-12T09:54:57.557Z,100.00
2022-09-12T09:57:36.206Z,98.70
2022-09-12T10:00:27.779Z,97.75
2022-09-12T10:03:34.339Z,96.57
2022-09-12T10:06:06.008Z,97.13
2022-09-12T10:08:35.620Z,95.85
2022-09-12T10:11:19.501Z,94.78
2022-09-12T10:13:53.102Z,94.19
2022-09-12T10:16:27.694Z,92.92
2022-09-12T10:18:56.859Z,93.19
2022-09-12T10:21:32.280Z,92.38
2022-09-12T10:24:03.164Z,90.49
2022-09-12T10:26:36.259Z,90.29
2022-09-12T10:29:28.559Z,90.37
2022-09-12T10:31:58.724Z,90.96
2022-09-12T10:34:31.011Z,89.72
2022-09-12T10:37:04.594Z,90.56
2022-09-12T10:39:32.633Z,92.00
2022-09-12T10:41:59.223Z,91.10
2022-09-12T10:44:33.609Z,92.49
2022-09-12T10:47:19.409Z,90.51
2022-09-12T10:49:45.844Z,90.00
2022-09-12T10:52:23.394Z,88.20
2022-09-12T10:54:54.284Z,87.95
2022-09-12T10:58:00.953Z,90.32
2022-09-12T11:00:30.286Z,88.82
2022-09-12T11:03:16.236Z,85.82
2022-09-12T11:05:55.234Z,87.86
2022-09-12T11:08:45.265Z,86.42
2022-09-12T11:11:39.956Z,83.12
2022-09-12T11:14:19.107Z,84.84
2022-09-12T11:17:18.339Z,82.14
2022-09-12T11:20:13.916Z,83.85
2022-09-12T11:23:17.558Z,84.34
2022-09-12T11:26:02.788Z,77.19
2022-09-12T11:28:46.687Z,78.23
2022-09-12T11:31:44.251Z,74.71
2022-09-12T11:34:14.335Z,74.57
2022-09-12T11:37:13.306Z,74.78
2022-09-12T11:39:46.457Z,74.07
2022-09-12T11:42:20.590Z,76.31
2022-09-12T11:44:56.355Z,76.56
2022-09-12T11:47:24.820Z,71.29
2022-09-12T11:49:54.588Z,72.92
2022-09-12T11:52:25.999Z,69.94
2022-09-12T11:55:06.595Z,73.25
2022-09-12T11:57:48.315Z,73.15
2022-09-12T12:00:26.560Z,67.23
2022-09-12T12:03:14.391Z,69.15
2022-09-12T12:05:59.609Z,63.96
2022-09-12T12:08:29.665Z,63.58
2022-09-12T12:11:03.933Z,62.04
2022-09-12T12:13:35.365Z,59.18
2022-09-12T12:16:14.343Z,59.54
2022-09-12T12:18:43.218Z,65.88
2022-09-12T12:21:26.578Z,64.14
2022-09-12T12:24:08.155Z,60.62
2022-09-12T12:26:40.626Z,58.13
2022-09-12T12:29:41.502Z,60.45
2022-09-12T12:32:09.797Z,59.87
2022-09-12T12:34:36.117Z,60.87
2022-09-12T12:37:43.502Z,61.78
2022-09-12T12:40:22.473Z,58.97
2022-09-12T12:42:48.800Z,59.58
2022-09-12T12:45:18.170Z,61.25
2022-09-12T12:47:47.610Z,59.06
2022-09-12T12:50:16.927Z,58.80
2022-09-12T12:52:47.541Z,58.96
2022-09-12T12:55:19.794Z,54.43
2022-09-12T12:57:52.567Z,53.20
2022-09-12T13:00:25.132Z,54.64
2022-09-12T13:03:00.443Z,55.24
2022-09-12T13:05:29.892Z,56.25
2022-09-12T13:08:33.076Z,52.66
2022-09-12T13:11:03.016Z,57.01
2022-09-12T13:13:41.018Z,56.27
2022-09-12T13:16:10.725Z,58.35
2022-09-12T13:18:45.431Z,58.52
2022-09-12T13:21:13.842Z,57.73
2022-09-12T13:23:41.231Z,59.11
2022-09-12T13:26:23.796Z,63.96
2022-09-12T13:28:51.436Z,60.22
2022-09-12T13:31:25.733Z,64.26
2022-09-12T13:33:53.689Z,59.05
2022-09-12T13:36:53.742Z,59.29
2022-09-12T13:39:34.311Z,60.55
2022-09-12T13:42:39.850Z,57.68
2022-09-12T13:45:12.822Z,59.24
2022-09-12T13:47:45.349Z,57.84
2022-09-12T13:50:18.395Z,57.12
2022-09-12T13:52:49.555Z,59.71
2022-09-12T13:55:31.397Z,59.56
2022-09-12T13:58:04.261Z,58.31
2022-09-12T14:00:33.195Z,57.13
2022-09-12T14:03:18.795Z,56.88
2022-09-12T14:05:54.968Z,57.74
2022-09-12T14:08:23.724Z,58.06
2022-09-12T14:10:51.265Z,58.61
2022-09-12T14:13:23.095Z,59.08
2022-09-12T14:15:55.140Z,58.28
2022-09-12T14:18:36.545Z,57.55
2022-09-12T14:21:10.598Z,58.87
2022-09-12T14:23:41.478Z,59.07
2022-09-12T14:26:12.236Z,58.67
2022-09-12T14:28:49.527Z,57.31
2022-09-12T14:31:16.642Z,56.55
2022-09-12T14:33:54.653Z,57.72
2022-09-12T14:36:29.994Z,57.45
2022-09-12T14:39:02.874Z,57.81
2022-09-12T14:41:34.508Z,56.99
2022-09-12T14:44:05.202Z,57.85
2022-09-12T14:46:37.255Z,58.48
2022-09-12T14:49:13.430Z,57.68
2022-09-12T14:51:44.712Z,57.42
2022-09-12T14:54:27.633Z,58.41
2022-09-12T14:57:00.379Z,58.06
2022-09-12T14:59:36.394Z,57.25
2022-09-12T15:02:21.034Z,56.93
2022-09-12T15:05:14.118Z,57.10
2022-09-12T15:07:43.184Z,56.23
2022-09-12T15:10:36.007Z,56.16
2022-09-12T15:13:05.411Z,56.41
2022-09-12T15:15:32.647Z,54.11
2022-09-12T15:18:01.377Z,54.79
2022-09-12T15:20:29.918Z,56.05
2022-09-12T15:22:56.795Z,56.87
2022-09-12T15:25:23.357Z,57.46
2022-09-12T15:27:53.673Z,58.60
2022-09-12T15:30:20.052Z,57.43
2022-09-12T15:32:46.411Z,57.15
2022-09-12T15:35:17.913Z,57.95
2022-09-12T15:37:44.928Z,58.47
2022-09-12T15:40:12.418Z,58.33
2022-09-12T15:42:39.131Z,57.58
2022-09-12T15:45:22.347Z,57.06
2022-09-12T15:47:48.835Z,57.12
2022-09-12T15:50:15.431Z,56.32
2022-09-12T15:52:42.978Z,55.94
2022-09-12T15:55:25.237Z,56.54
2022-09-12T15:57:52.022Z,56.80
2022-09-12T16:00:19.299Z,56.65
2022-09-12T16:02:48.958Z,56.00
2022-09-12T16:05:19.514Z,55.78
2022-09-12T16:07:45.970Z,56.17
2022-09-12T16:10:17.812Z,56.25
2022-09-12T16:12:45.477Z,57.27
2022-09-12T16:15:14.022Z,56.76
2022-09-12T16:17:40.772Z,56.21
2022-09-12T16:20:08.468Z,55.51
2022-09-12T16:22:34.890Z,55.46
2022-09-12T16:25:01.499Z,55.82
2022-09-12T16:27:27.864Z,55.94
2022-09-12T16:29:54.382Z,56.01
2022-09-12T16:32:20.815Z,56.15
2022-09-12T16:34:47.214Z,57.02
2022-09-12T16:37:13.652Z,57.05
2022-09-12T16:39:40.039Z,57.08
2022-09-12T16:42:06.558Z,57.02
2022-09-12T16:44:32.906Z,57.58
2022-09-12T16:46:59.261Z,57.81
2022-09-12T16:49:25.770Z,58.19
2022-09-12T16:51:52.218Z,58.83
2022-09-12T16:54:19.583Z,59.42
2022-09-12T16:56:46.607Z,59.52
2022-09-12T16:59:16.214Z,60.61
2022-09-12T17:01:43.050Z,62.06
2022-09-12T17:04:10.163Z,63.89
2022-09-12T17:06:36.652Z,65.21
2022-09-12T17:09:04.715Z,67.24
2022-09-12T17:11:33.645Z,68.67
2022-09-12T17:14:05.090Z,70.06
2022-09-12T17:16:38.218Z,72.11
2022-09-12T17:19:05.991Z,73.51
2022-09-12T17:21:32.743Z,74.30
2022-09-12T17:23:59.250Z,74.05
2022-09-12T17:26:26.656Z,74.88
2022-09-12T17:28:53.049Z,74.90
2022-09-12T17:31:19.729Z,75.64
2022-09-12T17:33:46.350Z,75.69
2022-09-12T17:36:16.254Z,76.17
2022-09-12T17:38:45.199Z,76.47
2022-09-12T17:41:20.663Z,76.58
2022-09-12T17:43:52.076Z,76.80
2022-09-12T17:46:19.914Z,77.00
2022-09-12T17:48:57.161Z,77.03
2022-09-12T17:51:25.249Z,77.41
2022-09-12T17:54:21.236Z,77.71
2022-09-12T17:56:52.119Z,77.01
2022-09-12T17:59:20.371Z,76.94
2022-09-12T18:02:05.580Z,77.28
2022-09-12T18:04:32.387Z,77.07
2022-09-12T18:07:00.237Z,77.42
2022-09-12T18:09:27.142Z,77.06
2022-09-12T18:11:53.979Z,77.68
2022-09-12T18:14:20.701Z,77.96
2022-09-12T18:16:47.956Z,78.04
2022-09-12T18:19:14.577Z,78.27
2022-09-12T18:21:41.568Z,78.21
2022-09-12T18:24:10.042Z,78.52
2022-09-12T18:26:36.928Z,78.62
2022-09-12T18:29:03.338Z,78.32
2022-09-12T18:31:31.016Z,78.52
2022-09-12T18:34:02.446Z,78.36
2022-09-12T18:36:30.232Z,78.75
2022-09-12T18:38:58.570Z,78.93
2022-09-12T18:41:25.822Z,78.84
2022-09-12T18:43:56.684Z,78.72
2022-09-12T18:46:23.969Z,78.58
2022-09-12T18:48:50.683Z,78.87
2022-09-12T18:51:19.973Z,78.23
2022-09-12T18:53:54.196Z,77.61
2022-09-12T18:56:21.863Z,77.27
2022-09-12T18:58:55.018Z,77.47
2022-09-12T19:01:27.199Z,77.10
2022-09-12T19:03:54.515Z,77.51
2022-09-12T19:06:26.526Z,78.41
2022-09-12T19:08:54.511Z,78.97
2022-09-12T19:11:21.852Z,78.99
2022-09-12T19:13:50.635Z,79.48
2022-09-12T19:16:19.780Z,79.60
2022-09-12T19:18:49.811Z,79.66
2022-09-12T19:21:24.619Z,79.60
2022-09-12T19:23:52.352Z,79.51
2022-09-12T19:26:20.451Z,79.77
2022-09-12T19:28:47.175Z,79.55
2022-09-12T19:31:16.605Z,78.43
2022-09-12T19:33:43.042Z,78.50
2022-09-12T19:36:33.658Z,78.45
2022-09-12T19:38:59.978Z,78.25
2022-09-12T19:41:26.481Z,78.25
2022-09-12T19:43:53.000Z,78.55
2022-09-12T19:46:21.955Z,78.14
2022-09-12T19:48:49.154Z,78.66
2022-09-12T19:51:16.907Z,79.26
2022-09-12T19:53:43.924Z,79.26
2022-09-12T19:56:12.008Z,78.80
2022-09-12T19:58:41.039Z,79.06
2022-09-12T20:01:14.950Z,79.58
2022-09-12T20:03:42.290Z,80.43
2022-09-12T20:06:10.938Z,81.43
2022-09-12T20:08:39.929Z,80.41
2022-09-12T20:11:07.303Z,79.97
2022-09-12T20:13:33.780Z,80.37
2022-09-12T20:16:11.615Z,79.93
2022-09-12T20:18:38.642Z,79.95
2022-09-12T20:21:14.815Z,80.83
2022-09-12T20:23:41.390Z,81.58
2022-09-12T20:26:09.215Z,80.91
2022-09-12T20:28:39.132Z,82.48
2022-09-12T20:31:23.991Z,81.00
2022-09-12T20:33:52.078Z,80.76
2022-09-12T20:36:20.547Z,80.51
2022-09-12T20:38:53.234Z,80.82
2022-09-12T20:41:21.094Z,81.14
2022-09-12T20:44:03.190Z,81.37
2022-09-12T20:46:29.781Z,81.50
2022-09-12T20:48:56.861Z,81.24
2022-09-12T20:51:25.451Z,81.58
2022-09-12T20:54:10.614Z,81.23
2022-09-12T20:56:37.584Z,81.13
2022-09-12T20:59:04.843Z,81.14
2022-09-12T21:01:31.599Z,81.44
2022-09-12T21:03:59.830Z,81.62
2022-09-12T21:06:26.485Z,82.05
2022-09-12T21:08:53.125Z,81.88
2022-09-12T21:11:19.826Z,81.99
2022-09-12T21:13:46.883Z,82.02
2022-09-12T21:16:18.324Z,82.13
2022-09-12T21:18:45.205Z,82.13
2022-09-12T21:21:13.407Z,82.74
2022-09-12T21:23:40.563Z,83.27
2022-09-12T21:26:08.008Z,83.25
2022-09-12T21:28:34.772Z,83.16
2022-09-12T21:31:01.358Z,83.18
2022-09-12T21:33:28.144Z,83.21
2022-09-12T21:35:54.498Z,83.14
2022-09-12T21:38:20.956Z,82.92
2022-09-12T21:40:47.684Z,83.24
2022-09-12T21:43:14.941Z,83.88
2022-09-12T21:45:41.337Z,83.81
2022-09-12T21:48:07.800Z,84.01
2022-09-12T21:50:34.198Z,84.57
2022-09-12T21:53:00.618Z,84.76
2022-09-12T21:55:27.376Z,84.61
2022-09-12T21:57:54.705Z,85.25
2022-09-12T22:00:22.134Z,85.61
2022-09-12T22:02:48.832Z,85.27
2022-09-12T22:05:15.517Z,85.38
2022-09-12T22:07:42.062Z,85.24
2022-09-12T22:10:09.182Z,85.47
2022-09-12T22:12:35.654Z,85.72
2022-09-12T22:15:17.542Z,85.38
2022-09-12T22:17:48.479Z,85.77
2022-09-12T22:20:14.972Z,85.63
2022-09-12T22:22:59.983Z,86.01
2022-09-12T22:25:26.546Z,85.58
2022-09-12T22:27:54.009Z,85.86
2022-09-12T22:30:21.608Z,85.93
2022-09-12T22:32:49.923Z,86.33
2022-09-12T22:35:17.646Z,86.30
2022-09-12T22:37:44.454Z,86.39
2022-09-12T22:40:11.875Z,86.07
2022-09-12T22:42:38.651Z,85.96
2022-09-12T22:45:06.495Z,86.09
2022-09-12T22:47:33.040Z,86.84
2022-09-12T22:49:59.403Z,86.60
2022-09-12T22:52:26.180Z,86.54
2022-09-12T22:54:53.003Z,86.51
2022-09-12T22:57:19.371Z,86.22
2022-09-12T22:59:46.523Z,86.45
2022-09-12T23:02:12.882Z,86.48
2022-09-12T23:04:39.814Z,86.38
2022-09-12T23:07:06.566Z,86.99
2022-09-12T23:09:35.382Z,86.37
2022-09-12T23:12:02.550Z,86.47
2022-09-12T23:14:28.927Z,86.91
2022-09-12T23:16:55.458Z,87.14
2022-09-12T23:19:21.879Z,86.61
2022-09-12T23:21:48.363Z,86.49
2022-09-12T23:24:14.801Z,86.72
2022-09-12T23:26:41.200Z,86.88
2022-09-12T23:29:07.655Z,86.37
2022-09-12T23:31:34.539Z,86.67
2022-09-12T23:34:03.738Z,86.68
2022-09-12T23:36:30.448Z,86.20
2022-09-12T23:38:57.690Z,86.31
2022-09-12T23:41:24.508Z,86.51
2022-09-12T23:43:50.926Z,86.57
2022-09-12T23:46:18.543Z,86.04
2022-09-12T23:48:45.395Z,86.74
2022-09-12T23:51:12.334Z,86.43
2022-09-12T23:53:39.219Z,86.74
2022-09-12T23:56:06.060Z,86.37
2022-09-12T23:58:32.723Z,87.44
